Airfield :







YOU CAN JOIN US ON...

 
LOGIN :

Register | Disclaimer

   EN    FR    IT 

 









Legend :    VFR   Marginal VFR   IFR   Intensive IFR   Very Intensive IFR
Visi :
Ceiling :
>= 8 km
>= 3000ft
5 to 8 km
1000 to 3000 ft
1500m to 5 km
500 to 1000 ft
800 to 1500m
200 to 500 ft
< 800m
< 200 ft
Symbols :   Thunderstorms  Fog  Heavy snow  Heavy precipitations  Wind > 20 kt






- Airport Elevation : 84 ft
- IATA code : YJT


CYJT - Stephenville

CURRENT METAR :
  • 250400Z 05004KT 15SM FEW020 M02/M04 A2999 RMK SC2 SLP158

EXPIRED METARs :
  • 250300Z 09006KT 15SM BKN020 M01/M04 A3001 RMK SC5 SLP165
  • 250200Z 10007KT 15SM BKN023 M01/M05 A3003 RMK SC5 SLP172

TAF AMD TAF CYJT
Valid from the 25 at 02:00 until the 26 at 00:00 UTC


250204Z 2502/2524 10007KT P6SM SCT020
TEMPO 2502/2512 BKN020
FM251200 22008KT P6SM SCT015 BKN050 OVC160
TEMPO 2512/2520 BKN015 OVC050
FM252000 VRB03KT P6SM SCT007
TEMPO 2520/2524 BKN007 RMK NXT FCST BY 250600Z



MET'MAP, your aeronautical weather chart ! - Copyright ORBIFLY December 2007 - Disclaimer

ORBIFLY MET'MAP TEAM :

Programming & Development : Alexandra Zaïnal
Concept & original design : Baudouin d'Aumeries
Assistance for programming : Marc-Olivier Méhu
Technical & hardware support : Manuel Goepfert

Contact : metmap@orbifly.com




SOURCES & CREDITS :

   NOAA